< < Back
Terminal Aerodrome Forecast


Current Version              Previous Versions:   1  2  3  4  5  6  7  8  9  

Terminal Aerodrome Forecast

107
FTUS42 KJAX 211100
TAFSSI
TAF
KSSI 211120Z 2112/2212 33006KT P6SM FEW250
     FM212000 17008KT P6SM SKC
     FM220200 23005KT P6SM SKC=



Latest METAR

791
SAUS70 KWBC 221000 RRS
MTRSSI
METAR KSSI 220953Z AUTO 24005KT 10SM CLR 21/17 A2999 RMK AO2 SLP156
T02110172


USA.gov is the U.S. government's official web portal to all federal, state and local government web resources and services.